KCIC/CIC METAR and TAF weather

Enter ICAO airport designator
Station Type Date Time Source
KCIC METAR 2018/04/21 20:50 UTC NOAA

KCIC 212050Z 28007KT 40SM FEW050 25/07 A3006


Station Type Date Time Source
KCIC Decoded METAR 2018/04/21 20:50 UTC NOAA

Chico Municipal , CA, United States (KCIC) 39-48N 121-51W
Apr 21, 2018 - 04:50 PM EDT / 2018.04.21 2050 UTC
Wind: from the W (280 degrees) at 8 MPH (7 KT):0
Visibility: 40 mile(s):0
Sky conditions: mostly clear
Temperature: 77 F (25 C)
Dew Point: 44 F (7 C)
Relative Humidity: 31%
Pressure (altimeter): 30.06 in. Hg (1017 hPa)
ob: KCIC 212050Z 28007KT 40SM FEW050 25/07 A3006
cycle: 21

Station Type Date Time Source
KCIC TAF UTC NOAA

Error!


Example: see airport list